Time;durP1;ratioP1;P1;durP2;ratioP2;P2;SDS_P1;SDS_P2;PMS_P1;PMS_P2;Temp;Humidity;BMP_temperature;BMP_pressure;BME280_temperature;BME280_humidity;BME280_pressure;Samples;Min_cycle;Max_cycle;Signal;HPM_P1;HPM_P2
2022/11/18 00:00:36;;;;;;;0.00;0.00;;;;;;;8.44;100.00;96856.72;4873335;29;20243;-59
2022/11/18 00:03:03;;;;;;;0.00;0.00;;;;;;;8.44;100.00;96857.50;4869252;29;20490;-59
2022/11/18 00:05:29;;;;;;;0.00;0.00;;;;;;;8.45;100.00;96863.53;4876042;29;20250;-59
2022/11/18 00:07:56;;;;;;;0.00;0.00;;;;;;;8.38;100.00;96856.47;4883410;29;20309;-59
2022/11/18 00:10:24;;;;;;;0.00;0.00;;;;;;;8.37;100.00;96854.84;4878600;29;20268;-58
2022/11/18 00:15:34;;;;;;;0.00;0.00;;;;;;;8.36;100.00;96861.03;4876943;29;20247;-59
2022/11/18 00:18:01;;;;;;;0.03;0.03;;;;;;;8.35;100.00;96859.41;4876329;29;20251;-59
2022/11/18 00:20:28;;;;;;;0.00;0.00;;;;;;;8.33;100.00;96856.19;4853034;29;20374;-59
2022/11/18 00:22:54;;;;;;;0.00;0.00;;;;;;;8.34;100.00;96864.78;4880230;29;20300;-59
2022/11/18 00:25:21;;;;;;;0.00;0.00;;;;;;;8.33;100.00;96855.38;4878629;29;20721;-58
2022/11/18 00:27:51;;;;;;;0.00;0.00;;;;;;;8.33;100.00;96857.97;4882240;29;20237;-59
2022/11/18 00:30:18;;;;;;;0.00;0.00;;;;;;;8.29;100.00;96854.94;4880909;29;20862;-58
2022/11/18 00:32:47;;;;;;;0.00;0.00;;;;;;;8.27;100.00;96857.69;4884476;29;20247;-59
2022/11/18 00:35:13;;;;;;;0.00;0.00;;;;;;;8.21;100.00;96855.81;4881187;29;20312;-59
2022/11/18 00:37:40;;;;;;;0.07;0.07;;;;;;;8.22;100.00;96862.63;4883564;29;20715;-59
2022/11/18 00:40:08;;;;;;;0.00;0.00;;;;;;;8.17;100.00;96856.38;4885130;29;20255;-59
2022/11/18 00:42:52;;;;;;;0.00;0.00;;;;;;;8.18;100.00;96857.97;4887039;29;20259;-59
2022/11/18 00:45:21;;;;;;;0.00;0.00;;;;;;;8.19;100.00;96857.00;4882110;29;20322;-60
2022/11/18 00:47:47;;;;;;;0.00;0.00;;;;;;;8.19;100.00;96854.41;4885159;29;20288;-59
2022/11/18 00:50:14;;;;;;;0.00;0.00;;;;;;;8.18;100.00;96856.19;4882116;29;20697;-59
2022/11/18 00:52:41;;;;;;;0.00;0.00;;;;;;;8.21;100.00;96855.81;4882022;29;20695;-59
2022/11/18 00:55:09;;;;;;;0.00;0.00;;;;;;;8.23;100.00;96859.03;4881989;29;21224;-60
2022/11/18 00:57:35;;;;;;;0.00;0.00;;;;;;;8.26;100.00;96860.50;4884416;29;20502;-60
2022/11/18 01:00:03;;;;;;;0.00;0.00;;;;;;;8.24;100.00;96863.25;4883119;29;20785;-59
2022/11/18 01:02:31;;;;;;;0.00;0.00;;;;;;;8.31;100.00;96867.75;4879072;29;20250;-59
2022/11/18 01:04:57;;;;;;;0.00;0.00;;;;;;;8.33;100.00;96877.00;4864120;29;20298;-59
2022/11/18 01:07:24;;;;;;;0.00;0.00;;;;;;;8.36;100.00;96879.22;4870694;29;20244;-59
2022/11/18 01:09:51;;;;;;;0.00;0.00;;;;;;;8.41;100.00;96869.09;4884699;29;20238;-60
2022/11/18 01:15:01;;;;;;;0.00;0.00;;;;;;;8.56;100.00;96884.72;4882978;29;20276;-60
2022/11/18 01:17:31;;;;;;;0.10;0.10;;;;;;;8.57;100.00;96875.91;4875421;29;20250;-60
2022/11/18 01:19:58;;;;;;;0.00;0.00;;;;;;;8.62;100.00;96897.97;4876209;29;20363;-59
2022/11/18 01:22:24;;;;;;;0.00;0.00;;;;;;;8.64;100.00;96898.59;4871618;29;20238;-60
2022/11/18 01:24:51;;;;;;;0.00;0.00;;;;;;;8.71;100.00;96904.69;4876956;29;20728;-60
2022/11/18 01:27:18;;;;;;;0.00;0.00;;;;;;;8.79;100.00;96907.19;4880461;29;20305;-60
2022/11/18 01:29:44;;;;;;;0.00;0.00;;;;;;;8.88;100.00;96912.31;4884590;29;20301;-60
2022/11/18 01:32:11;;;;;;;0.00;0.00;;;;;;;8.96;100.00;96925.22;4878597;29;20240;-60
2022/11/18 01:34:38;;;;;;;0.03;0.03;;;;;;;8.96;100.00;96925.22;4883952;29;20304;-60
2022/11/18 01:37:05;;;;;;;0.00;0.00;;;;;;;9.01;100.00;96931.47;4882358;29;20463;-60
2022/11/18 01:39:32;;;;;;;0.00;0.00;;;;;;;8.97;100.00;96938.03;4880035;29;20690;-60
2022/11/18 01:41:58;;;;;;;0.00;0.00;;;;;;;8.98;100.00;96946.66;4883549;29;20264;-59
2022/11/18 01:45:03;;;;;;;0.00;0.00;;;;;;;9.00;100.00;96952.47;4877654;29;20241;-60
2022/11/18 01:47:34;;;;;;;0.00;0.00;;;;;;;8.95;100.00;96952.22;4881013;29;20229;-60
2022/11/18 01:50:03;;;;;;;0.00;0.00;;;;;;;8.88;100.00;96967.72;4881714;29;20234;-59
2022/11/18 01:52:31;;;;;;;0.00;0.00;;;;;;;8.80;100.00;96967.81;4879571;29;20240;-60
2022/11/18 01:55:02;;;;;;;0.00;0.00;;;;;;;8.77;100.00;96976.81;4882737;29;20284;-60
2022/11/18 01:57:31;;;;;;;0.00;0.00;;;;;;;8.73;100.00;96978.16;4876619;29;20314;-59
2022/11/18 02:00:01;;;;;;;0.00;0.00;;;;;;;8.80;100.00;96986.03;4880998;29;20607;-59
2022/11/18 02:02:33;;;;;;;0.00;0.00;;;;;;;8.76;100.00;96995.19;4877291;29;20716;-59
2022/11/18 02:05:02;;;;;;;0.00;0.00;;;;;;;8.70;100.00;97001.94;4880563;29;20248;-59
2022/11/18 02:07:29;;;;;;;0.00;0.00;;;;;;;8.57;100.00;96995.56;4879414;29;20291;-59
2022/11/18 02:10:00;;;;;;;0.00;0.00;;;;;;;8.52;100.00;96994.44;4880458;29;20232;-59
2022/11/18 02:12:26;;;;;;;0.00;0.00;;;;;;;8.46;100.00;97011.56;4878959;29;20233;-59
2022/11/18 02:14:54;;;;;;;0.00;0.00;;;;;;;8.50;100.00;97012.84;4881683;29;20237;-59
2022/11/18 02:17:33;;;;;;;0.00;0.00;;;;;;;8.49;100.00;97013.00;4871514;29;20704;-60
2022/11/18 02:20:24;;;;;;;0.00;0.00;;;;;;;8.49;100.00;97020.81;4876831;29;20237;-60
2022/11/18 02:23:26;;;;;;;0.00;0.00;;;;;;;8.48;100.00;97017.38;4878983;29;20743;-59
2022/11/18 02:26:05;;;;;;;0.00;0.00;;;;;;;8.48;100.00;97027.00;4841738;29;20237;-59
2022/11/18 02:28:50;;;;;;;0.00;0.00;;;;;;;8.47;100.00;97022.78;4879840;29;20305;-60
2022/11/18 02:31:24;;;;;;;0.00;0.00;;;;;;;8.45;100.00;97033.34;4880799;29;20241;-60
2022/11/18 02:33:55;;;;;;;0.00;0.00;;;;;;;8.43;100.00;97035.31;4901176;29;20246;-60
2022/11/18 02:36:26;;;;;;;0.00;0.00;;;;;;;8.42;100.00;97025.91;4897143;29;20236;-60
2022/11/18 02:38:57;;;;;;;0.00;0.00;;;;;;;8.42;100.00;97024.13;4897842;29;20234;-59
2022/11/18 02:41:28;;;;;;;0.00;0.00;;;;;;;8.38;100.00;97027.22;4895421;29;20229;-60
2022/11/18 02:44:02;;;;;;;0.00;0.00;;;;;;;8.35;100.00;97015.41;4875652;29;20246;-59
2022/11/18 02:46:32;;;;;;;0.00;0.00;;;;;;;8.32;100.00;97025.34;4889310;29;20684;-59
2022/11/18 02:49:00;;;;;;;0.00;0.00;;;;;;;8.32;100.00;97020.97;4900787;29;20233;-60
2022/11/18 02:51:30;;;;;;;0.00;0.00;;;;;;;8.34;100.00;97033.75;4879403;29;20243;-59
2022/11/18 02:54:00;;;;;;;0.00;0.00;;;;;;;8.27;100.00;97039.66;4893615;29;20259;-60
2022/11/18 02:56:28;;;;;;;0.00;0.00;;;;;;;8.21;100.00;97037.75;4877947;29;22265;-59
2022/11/18 02:58:56;;;;;;;0.00;0.00;;;;;;;8.20;100.00;97030.16;4880149;29;20702;-59
2022/11/18 03:01:26;;;;;;;0.00;0.00;;;;;;;8.19;100.00;97031.13;4867555;29;20712;-61
2022/11/18 03:03:52;;;;;;;0.00;0.00;;;;;;;8.24;100.00;97044.41;4879805;29;20237;-60
2022/11/18 03:06:29;;;;;;;0.00;0.00;;;;;;;8.23;100.00;97046.19;4877284;29;20241;-59
2022/11/18 03:09:03;;;;;;;0.00;0.00;;;;;;;8.21;100.00;97050.75;4880460;29;20272;-59
2022/11/18 03:11:33;;;;;;;0.00;0.00;;;;;;;8.18;100.00;97058.91;4878861;29;20248;-60
2022/11/18 03:14:14;;;;;;;0.00;0.00;;;;;;;8.12;100.00;97050.03;4882067;29;20323;-59
2022/11/18 03:16:48;;;;;;;0.00;0.00;;;;;;;8.12;100.00;97070.00;4883723;29;20233;-60
2022/11/18 03:19:24;;;;;;;0.00;0.00;;;;;;;8.07;100.00;97062.72;4899225;29;20246;-60
2022/11/18 03:22:01;;;;;;;0.00;0.00;;;;;;;7.96;100.00;97063.13;4893869;29;20286;-59
2022/11/18 03:24:31;;;;;;;0.00;0.00;;;;;;;7.93;100.00;97066.91;4885695;29;20244;-60
2022/11/18 03:27:06;;;;;;;0.03;0.03;;;;;;;7.95;100.00;97074.50;4900270;29;20253;-59
2022/11/18 03:29:39;;;;;;;0.00;0.00;;;;;;;8.00;100.00;97076.56;4901274;29;20232;-59
2022/11/18 03:32:11;;;;;;;0.00;0.00;;;;;;;7.96;100.00;97083.91;4902996;29;20235;-60
2022/11/18 03:34:42;;;;;;;0.00;0.00;;;;;;;7.97;100.00;97099.31;4898908;29;20234;-59
2022/11/18 03:37:14;;;;;;;0.00;0.00;;;;;;;7.95;100.00;97095.28;4891126;29;20239;-61
2022/11/18 03:39:45;;;;;;;0.00;0.00;;;;;;;7.97;100.00;97099.31;4890851;29;20296;-60
2022/11/18 03:42:18;;;;;;;0.00;0.00;;;;;;;7.90;100.00;97102.78;4889838;29;20236;-59
2022/11/18 03:44:52;;;;;;;0.00;0.00;;;;;;;7.82;100.00;97096.66;4894631;29;20255;-59
2022/11/18 03:47:24;;;;;;;0.00;0.00;;;;;;;7.83;100.00;97106.06;4883951;29;20239;-59
2022/11/18 03:49:58;;;;;;;0.00;0.00;;;;;;;7.84;100.00;97109.50;4891024;29;20240;-58
2022/11/18 03:52:28;;;;;;;0.03;0.03;;;;;;;7.83;100.00;97113.88;4899510;29;20239;-59
2022/11/18 03:54:59;;;;;;;0.00;0.00;;;;;;;7.75;100.00;97113.09;4903878;29;20244;-59
2022/11/18 03:57:41;;;;;;;0.00;0.00;;;;;;;7.75;100.00;97120.91;4881093;29;20296;-59
2022/11/18 04:00:13;;;;;;;0.10;0.10;;;;;;;7.75;100.00;97134.69;4896949;29;20241;-59
2022/11/18 04:02:40;;;;;;;0.00;0.00;;;;;;;7.70;100.00;97128.38;4901192;29;20250;-60
2022/11/18 04:05:10;;;;;;;0.00;0.00;;;;;;;7.74;100.00;97137.47;4903131;29;20780;-60
2022/11/18 04:07:41;;;;;;;0.10;0.10;;;;;;;7.74;100.00;97143.44;4899295;29;20774;-60
2022/11/18 04:10:13;;;;;;;0.00;0.00;;;;;;;7.73;100.00;97141.03;4900093;29;20228;-60
2022/11/18 04:12:45;;;;;;;0.00;0.00;;;;;;;7.66;100.00;97146.09;4903463;29;20247;-60
2022/11/18 04:15:13;;;;;;;0.00;0.00;;;;;;;7.59;100.00;97147.72;4891581;29;20234;-59
2022/11/18 04:17:41;;;;;;;0.00;0.00;;;;;;;7.64;100.00;97150.63;4903391;29;20271;-60
2022/11/18 04:20:13;;;;;;;0.00;0.00;;;;;;;7.55;100.00;97155.06;4900349;29;20248;-59
2022/11/18 04:22:39;;;;;;;0.00;0.00;;;;;;;7.54;100.00;97156.84;4896404;29;20285;-59
2022/11/18 04:25:06;;;;;;;0.00;0.00;;;;;;;7.53;100.00;97155.22;4904592;29;20247;-60
2022/11/18 04:27:33;;;;;;;0.00;0.00;;;;;;;7.51;100.00;97162.38;4891564;29;20340;-60
2022/11/18 04:29:59;;;;;;;0.00;0.00;;;;;;;7.52;100.00;97166.56;4902329;29;20243;-60
2022/11/18 04:32:27;;;;;;;0.00;0.00;;;;;;;7.52;100.00;97166.56;5129285;23;20225;-60
2022/11/18 04:34:54;;;;;;;0.00;0.00;;;;;;;7.55;100.00;97168.03;4902493;29;20239;-60
2022/11/18 04:37:20;;;;;;;0.00;0.00;;;;;;;7.52;100.00;97166.56;4909787;29;20237;-59
2022/11/18 04:39:47;;;;;;;0.00;0.00;;;;;;;7.52;100.00;97170.97;4908422;29;20299;-60
2022/11/18 04:42:13;;;;;;;0.10;0.10;;;;;;;7.50;100.00;97171.13;4920243;28;20243;-60
2022/11/18 04:44:40;;;;;;;0.00;0.00;;;;;;;7.47;100.00;97174.06;4932880;29;20251;-59
2022/11/18 04:47:07;;;;;;;0.00;0.00;;;;;;;7.50;100.00;97171.13;4916307;29;20247;-59
2022/11/18 04:49:35;;;;;;;0.00;0.00;;;;;;;7.50;100.00;97176.31;4921000;29;20886;-59
2022/11/18 04:52:02;;;;;;;0.10;0.10;;;;;;;7.45;100.00;97176.00;4907511;29;20251;-59
2022/11/18 04:54:29;;;;;;;0.00;0.00;;;;;;;7.48;100.00;97177.47;4910487;29;20295;-60
2022/11/18 04:56:56;;;;;;;0.00;0.00;;;;;;;7.41;100.00;97172.16;4913227;29;20299;-60
2022/11/18 04:59:24;;;;;;;0.00;0.00;;;;;;;7.41;100.00;97177.34;4926350;29;20223;-60
2022/11/18 05:01:51;;;;;;;0.00;0.00;;;;;;;7.42;100.00;97180.75;4933126;29;20302;-59
2022/11/18 05:04:19;;;;;;;0.00;0.00;;;;;;;7.40;100.00;97178.31;4925568;29;20282;-59
2022/11/18 05:06:47;;;;;;;0.00;0.00;;;;;;;7.32;100.00;97175.75;4925590;29;20239;-59
2022/11/18 05:09:14;;;;;;;0.10;0.10;;;;;;;7.30;100.00;97182.88;4921943;29;20658;-60
2022/11/18 05:14:26;;;;;;;0.00;0.00;;;;;;;7.29;100.00;97181.25;4928102;29;20277;-59
2022/11/18 05:16:53;;;;;;;0.00;0.00;;;;;;;7.26;100.00;97185.00;4926663;29;20253;-59
2022/11/18 05:19:19;;;;;;;0.00;0.00;;;;;;;7.20;100.00;97181.28;4919318;29;20632;-59
2022/11/18 05:21:47;;;;;;;0.00;0.00;;;;;;;7.21;100.00;97188.09;4932326;29;20235;-60
2022/11/18 05:24:14;;;;;;;0.07;0.07;;;;;;;7.27;100.00;97185.81;4928592;29;20299;-59
2022/11/18 05:26:41;;;;;;;0.00;0.00;;;;;;;7.27;100.00;97189.19;4925342;29;20248;-59
2022/11/18 05:29:07;;;;;;;0.00;0.00;;;;;;;7.27;100.00;97186.59;4912669;29;20291;-60
2022/11/18 05:31:34;;;;;;;0.00;0.00;;;;;;;7.28;100.00;97188.22;4931888;29;20631;-59
2022/11/18 05:34:00;;;;;;;0.00;0.00;;;;;;;7.32;100.00;97184.31;4916357;29;20762;-59
2022/11/18 05:36:27;;;;;;;0.00;0.00;;;;;;;7.31;100.00;97176.72;4921530;29;21506;-59
2022/11/18 05:38:58;;;;;;;0.00;0.00;;;;;;;7.29;100.00;97187.25;4931942;29;20290;-60
2022/11/18 05:44:09;;;;;;;0.00;0.00;;;;;;;7.30;100.00;97193.28;4926273;28;20224;-59
2022/11/18 05:46:36;;;;;;;0.00;0.00;;;;;;;7.32;100.00;97202.50;4915167;29;20250;-60
2022/11/18 05:49:02;;;;;;;0.00;0.00;;;;;;;7.31;100.00;97207.88;4922871;29;20242;-59
2022/11/18 05:51:29;;;;;;;0.00;0.00;;;;;;;7.23;100.00;97206.91;4920934;28;20240;-59
2022/11/18 05:53:57;;;;;;;0.00;0.00;;;;;;;7.28;100.00;97210.78;4918600;29;20239;-61
2022/11/18 05:56:28;;;;;;;0.00;0.00;;;;;;;7.32;100.00;97214.69;4920096;29;20231;-59
2022/11/18 05:58:54;;;;;;;0.00;0.00;;;;;;;7.35;100.00;97215.16;4905281;29;20951;-59
2022/11/18 06:01:26;;;;;;;0.00;0.00;;;;;;;7.37;100.00;97217.59;4928174;29;20243;-59
2022/11/18 06:03:53;;;;;;;0.00;0.00;;;;;;;7.36;100.00;97223.75;4931780;29;20231;-60
2022/11/18 06:06:21;;;;;;;0.00;0.00;;;;;;;7.33;100.00;97216.31;4918562;29;20785;-59
2022/11/18 06:08:54;;;;;;;0.00;0.00;;;;;;;7.31;100.00;97220.84;4917373;29;20228;-59
2022/11/18 06:11:23;;;;;;;0.00;0.00;;;;;;;7.32;100.00;97214.69;4928460;28;20251;-59
2022/11/18 06:13:54;;;;;;;0.00;0.00;;;;;;;7.30;100.00;97217.44;4932226;29;20239;-59
2022/11/18 06:16:25;;;;;;;0.00;0.00;;;;;;;7.35;100.00;97225.53;4927019;29;20236;-59
2022/11/18 06:18:51;;;;;;;0.00;0.00;;;;;;;7.39;100.00;97233.81;4924327;29;20239;-59
2022/11/18 06:21:18;;;;;;;0.00;0.00;;;;;;;7.39;100.00;97232.00;4919926;29;20226;-60
2022/11/18 06:23:45;;;;;;;0.00;0.00;;;;;;;7.40;100.00;97238.03;4904659;29;20952;-59
2022/11/18 06:26:14;;;;;;;0.00;0.00;;;;;;;7.37;100.00;97233.16;4928882;29;20251;-58
2022/11/18 06:28:44;;;;;;;0.00;0.00;;;;;;;7.38;100.00;97238.19;4929095;29;20302;-60
2022/11/18 06:31:10;;;;;;;0.00;0.00;;;;;;;7.36;100.00;97241.94;4924693;29;20612;-59
2022/11/18 06:33:37;;;;;;;0.00;0.00;;;;;;;7.32;100.00;97246.63;4896536;29;20843;-60
2022/11/18 06:36:03;;;;;;;0.00;0.00;;;;;;;7.36;100.00;97247.13;4929952;29;20234;-60
2022/11/18 06:38:30;;;;;;;0.00;0.00;;;;;;;7.37;100.00;97251.34;4926750;29;20235;-61
2022/11/18 06:40:59;;;;;;;0.00;0.00;;;;;;;7.34;100.00;97262.84;4910340;29;20231;-60
2022/11/18 06:43:43;;;;;;;0.00;0.00;;;;;;;7.38;100.00;97252.97;4919651;29;20236;-59
2022/11/18 06:48:58;;;;;;;0.00;0.00;;;;;;;7.41;100.00;97270.81;4931960;29;20247;-59
2022/11/18 06:51:25;;;;;;;0.00;0.00;;;;;;;7.41;100.00;97277.78;4927555;29;20232;-59
2022/11/18 06:53:52;;;;;;;0.00;0.00;;;;;;;7.42;100.00;97287.19;4934111;29;20238;-60
2022/11/18 06:56:20;;;;;;;0.00;0.00;;;;;;;7.44;100.00;97288.63;4927884;29;20705;-59
2022/11/18 06:58:50;;;;;;;0.00;0.00;;;;;;;7.49;100.00;97290.75;4930009;29;20247;-60
2022/11/18 07:01:20;;;;;;;0.00;0.00;;;;;;;7.60;100.00;97284.38;4915219;29;20228;-59
2022/11/18 07:03:48;;;;;;;0.00;0.00;;;;;;;7.58;100.00;97294.13;4927760;28;20268;-59
2022/11/18 07:06:16;;;;;;;0.00;0.00;;;;;;;7.58;100.00;97307.94;4924008;28;20927;-59
2022/11/18 07:08:44;;;;;;;0.00;0.00;;;;;;;7.61;100.00;97294.63;4931353;29;20235;-59
2022/11/18 07:11:13;;;;;;;0.00;0.00;;;;;;;7.62;100.00;97300.63;4928841;29;20757;-59
2022/11/18 07:13:41;;;;;;;0.00;0.00;;;;;;;7.65;100.00;97308.06;4930138;29;20237;-59
2022/11/18 07:16:10;;;;;;;0.00;0.00;;;;;;;7.64;100.00;97298.66;4912976;29;20231;-59
2022/11/18 07:18:39;;;;;;;0.00;0.00;;;;;;;7.69;100.00;97301.56;4927168;29;20238;-59
2022/11/18 07:21:08;;;;;;;0.00;0.00;;;;;;;7.69;100.00;97301.56;4930642;29;20717;-59
2022/11/18 07:23:35;;;;;;;0.00;0.00;;;;;;;7.70;100.00;97318.78;4927121;29;20239;-58
2022/11/18 07:26:02;;;;;;;0.00;0.00;;;;;;;7.76;100.00;97332.91;4928499;29;20627;-59
2022/11/18 07:28:29;;;;;;;0.00;0.00;;;;;;;7.75;100.00;97334.69;4926816;29;20243;-62
2022/11/18 07:31:00;;;;;;;0.00;0.00;;;;;;;7.79;100.00;97337.78;4928286;29;20724;-58
2022/11/18 07:33:27;;;;;;;0.00;0.00;;;;;;;7.73;100.00;97356.63;4912353;29;20241;-58
2022/11/18 07:35:55;;;;;;;0.00;0.00;;;;;;;7.75;100.00;97339.88;4932957;29;20235;-59
2022/11/18 07:38:21;;;;;;;0.00;0.00;;;;;;;7.79;100.00;97350.78;4926627;29;20243;-59
2022/11/18 07:40:48;;;;;;;0.00;0.00;;;;;;;7.77;100.00;97347.53;4918933;29;20248;-60
2022/11/18 07:43:14;;;;;;;0.00;0.00;;;;;;;7.81;100.00;97352.22;4926368;29;20255;-59
2022/11/18 07:45:41;;;;;;;0.00;0.00;;;;;;;7.85;100.00;97370.06;4932301;29;20247;-58
2022/11/18 07:48:07;;;;;;;0.00;0.00;;;;;;;7.86;100.00;97358.72;4928311;29;20243;-58
2022/11/18 07:50:34;;;;;;;0.07;0.07;;;;;;;7.89;100.00;97372.19;4924870;29;20246;-59
2022/11/18 07:53:02;;;;;;;0.00;0.00;;;;;;;7.92;100.00;97381.44;4928772;29;20252;-59
2022/11/18 07:55:28;;;;;;;0.00;0.00;;;;;;;7.95;100.00;97383.69;4927252;29;20249;-63
2022/11/18 07:57:55;;;;;;;0.00;0.00;;;;;;;7.97;100.00;97384.34;4928984;29;20247;-59
2022/11/18 08:00:22;;;;;;;0.00;0.00;;;;;;;7.99;100.00;97392.78;4925168;29;20233;-59
2022/11/18 08:02:50;;;;;;;0.00;0.00;;;;;;;7.96;100.00;97390.53;4910934;29;20730;-59
2022/11/18 08:05:19;;;;;;;0.00;0.00;;;;;;;7.98;100.00;97383.38;4905134;29;20237;-60
2022/11/18 08:07:46;;;;;;;0.00;0.00;;;;;;;7.95;100.00;97388.91;4920732;28;20294;-59
2022/11/18 08:10:14;;;;;;;0.00;0.00;;;;;;;7.98;100.00;97399.75;4928947;29;20247;-59
2022/11/18 08:12:40;;;;;;;0.03;0.03;;;;;;;8.05;100.00;97405.13;4913821;29;20678;-59
2022/11/18 08:15:08;;;;;;;0.00;0.00;;;;;;;8.02;100.00;97402.84;4931196;29;20283;-59
2022/11/18 08:17:35;;;;;;;0.07;0.07;;;;;;;8.05;100.00;97414.69;4920568;29;20239;-59
2022/11/18 08:20:01;;;;;;;0.00;0.00;;;;;;;8.04;100.00;97423.47;4927098;29;21212;-59
2022/11/18 08:22:28;;;;;;;0.00;0.00;;;;;;;8.06;100.00;97430.16;4927775;29;20279;-58
2022/11/18 08:24:54;;;;;;;0.00;0.00;;;;;;;8.05;100.00;97414.69;4913231;29;20259;-59
2022/11/18 08:27:22;;;;;;;0.00;0.00;;;;;;;8.07;100.00;97420.53;4910822;29;20252;-59
2022/11/18 08:29:49;;;;;;;0.00;0.00;;;;;;;8.07;100.00;97421.38;4912442;29;20236;-60
2022/11/18 08:32:15;;;;;;;0.10;0.10;;;;;;;8.09;100.00;97416.81;4917542;28;20298;-59
2022/11/18 08:34:42;;;;;;;0.00;0.00;;;;;;;8.08;100.00;97422.16;4933391;29;20231;-59
2022/11/18 08:37:08;;;;;;;0.00;0.00;;;;;;;8.04;100.00;97428.66;4919340;28;20242;-59
2022/11/18 08:39:35;;;;;;;0.00;0.00;;;;;;;8.08;100.00;97433.38;4903416;29;20714;-60
2022/11/18 08:42:02;;;;;;;0.00;0.00;;;;;;;8.04;100.00;97418.28;4908225;29;20310;-58
2022/11/18 08:44:32;;;;;;;0.00;0.00;;;;;;;8.07;100.00;97431.75;4928504;28;20244;-59
2022/11/18 08:46:58;;;;;;;0.00;0.00;;;;;;;8.05;100.00;97435.50;4933351;28;21095;-59
2022/11/18 08:49:25;;;;;;;0.00;0.00;;;;;;;7.98;100.00;97438.75;4930466;28;20227;-59
2022/11/18 08:51:51;;;;;;;0.00;0.00;;;;;;;8.06;100.00;97442.31;4923511;28;20260;-59
2022/11/18 08:54:18;;;;;;;0.00;0.00;;;;;;;8.02;100.00;97449.63;4916397;29;20243;-59
2022/11/18 08:56:45;;;;;;;0.00;0.00;;;;;;;8.10;100.00;97451.41;4915064;29;20281;-58
2022/11/18 08:59:14;;;;;;;0.00;0.00;;;;;;;8.14;100.00;97452.69;4909613;29;20234;-59
2022/11/18 09:01:42;;;;;;;0.00;0.00;;;;;;;8.09;100.00;97454.97;4907438;29;20364;-58
2022/11/18 09:04:10;;;;;;;0.00;0.00;;;;;;;8.12;100.00;97452.88;4901815;29;20271;-59
2022/11/18 09:06:39;;;;;;;0.00;0.00;;;;;;;8.18;100.00;97455.78;4902231;29;20236;-59
2022/11/18 09:09:06;;;;;;;0.00;0.00;;;;;;;8.23;100.00;97459.50;4909513;29;20717;-59
2022/11/18 09:11:32;;;;;;;0.00;0.00;;;;;;;8.35;100.00;97459.19;4903549;29;20712;-59
2022/11/18 09:14:00;;;;;;;0.07;0.07;;;;;;;8.42;100.00;97457.53;4904460;29;20594;-60
2022/11/18 09:16:28;;;;;;;0.00;0.00;;;;;;;8.40;100.00;97462.91;4926084;29;20221;-58
2022/11/18 09:18:57;;;;;;;0.00;0.00;;;;;;;8.35;100.00;97460.00;4912293;29;20232;-59
2022/11/18 09:21:25;;;;;;;0.00;0.00;;;;;;;8.41;100.00;97464.53;4912641;29;20233;-59
2022/11/18 09:23:52;;;;;;;0.00;0.00;;;;;;;8.44;100.00;97460.78;4925353;29;20239;-58
2022/11/18 09:26:21;;;;;;;0.00;0.00;;;;;;;8.42;100.00;97463.56;4927552;28;20223;-59
2022/11/18 09:28:48;;;;;;;0.00;0.00;;;;;;;8.41;100.00;97459.34;4908489;29;20328;-59
2022/11/18 09:31:17;;;;;;;0.00;0.00;;;;;;;8.44;100.00;97468.59;4917961;28;20798;-60
2022/11/18 09:33:44;;;;;;;0.00;0.00;;;;;;;8.41;100.00;97471.50;4905450;29;20240;-59
2022/11/18 09:36:14;;;;;;;0.00;0.00;;;;;;;8.43;100.00;97472.16;4921083;29;20239;-59
2022/11/18 09:38:41;;;;;;;0.00;0.00;;;;;;;8.40;100.00;97478.53;4923792;29;20227;-59
2022/11/18 09:41:22;;;;;;;0.00;0.00;;;;;;;8.41;100.00;97487.94;4917746;29;20255;-59
2022/11/18 09:44:00;;;;;;;0.00;0.00;;;;;;;8.46;100.00;97482.25;4908915;29;20846;-60
2022/11/18 09:46:36;;;;;;;0.00;0.00;;;;;;;8.46;100.00;97492.63;4916683;29;20241;-60
2022/11/18 09:49:14;;;;;;;0.00;0.00;;;;;;;8.47;100.00;97501.25;4910542;29;20231;-59
2022/11/18 09:51:45;;;;;;;0.00;0.00;;;;;;;8.51;100.00;97500.78;4921930;29;20242;-59
2022/11/18 09:54:20;;;;;;;0.00;0.00;;;;;;;8.47;100.00;97496.06;4917261;29;20781;-63
2022/11/18 09:56:48;;;;;;;0.00;0.00;;;;;;;8.60;100.00;97513.78;4922623;29;20700;-59
2022/11/18 09:59:17;;;;;;;0.10;0.10;;;;;;;8.59;100.00;97522.56;4917493;29;20316;-59
2022/11/18 10:01:44;;;;;;;0.00;0.00;;;;;;;8.71;100.00;97518.63;4906782;29;20691;-59
2022/11/18 10:04:15;;;;;;;0.00;0.00;;;;;;;8.70;100.00;97510.00;4892340;29;20256;-59
2022/11/18 10:06:48;;;;;;;0.00;0.00;;;;;;;8.78;100.00;97519.59;4906741;29;20240;-59
2022/11/18 10:09:26;;;;;;;0.00;0.00;;;;;;;8.87;100.00;97517.78;4898156;29;20232;-60
2022/11/18 10:12:09;;;;;;;0.00;0.00;;;;;;;8.88;100.00;97518.59;4921470;29;20240;-60
2022/11/18 10:14:47;;;;;;;0.10;0.10;;;;;;;9.06;100.00;97528.78;4918210;29;20251;-60
2022/11/18 10:17:31;;;;;;;0.00;0.00;;;;;;;8.99;100.00;97521.63;4907109;29;20719;-59
2022/11/18 10:20:12;;;;;;;0.10;0.10;;;;;;;8.90;100.00;97521.84;4917816;28;20240;-60
2022/11/18 10:22:46;;;;;;;0.00;0.00;;;;;;;9.15;100.00;97527.78;4912427;29;20306;-60
2022/11/18 10:25:14;;;;;;;0.00;0.00;;;;;;;9.06;100.00;97519.16;4916210;28;20244;-60
2022/11/18 10:27:43;;;;;;;0.00;0.00;;;;;;;9.07;100.00;97526.00;4917191;28;20263;-59
2022/11/18 10:30:14;;;;;;;0.00;0.00;;;;;;;9.08;100.00;97532.03;4917310;29;20291;-60
2022/11/18 10:32:54;;;;;;;0.00;0.00;;;;;;;9.06;100.00;97539.19;4920413;28;20229;-60
2022/11/18 10:35:25;;;;;;;0.00;0.00;;;;;;;9.12;100.00;97538.53;4911320;28;20230;-60
2022/11/18 10:38:02;;;;;;;0.00;0.00;;;;;;;9.08;100.00;97540.63;4919459;29;20234;-60
2022/11/18 10:40:31;;;;;;;0.00;0.00;;;;;;;9.28;100.00;97532.44;4917732;29;20304;-59
2022/11/18 10:42:58;;;;;;;0.00;0.00;;;;;;;9.34;100.00;97530.94;4916707;29;20246;-60
2022/11/18 10:45:30;;;;;;;0.00;0.00;;;;;;;9.37;100.00;97531.41;4903439;29;20227;-60
2022/11/18 10:48:00;;;;;;;0.00;0.00;;;;;;;9.19;100.00;97534.25;4915860;29;20238;-61
2022/11/18 10:50:34;;;;;;;0.00;0.00;;;;;;;9.05;100.00;97525.34;4920438;29;20261;-60
2022/11/18 10:53:02;;;;;;;0.00;0.00;;;;;;;8.92;100.00;97536.31;4919309;29;20247;-60
2022/11/18 10:55:29;;;;;;;0.00;0.00;;;;;;;8.92;100.00;97544.09;4917366;29;20297;-60
2022/11/18 10:58:00;;;;;;;0.00;0.00;;;;;;;8.85;100.00;97543.97;4920425;29;20232;-60
2022/11/18 11:00:42;;;;;;;0.00;0.00;;;;;;;8.77;100.00;97541.38;4916520;29;20228;-60
2022/11/18 11:03:32;;;;;;;0.00;0.00;;;;;;;8.74;100.00;97540.91;4918150;29;20338;-60
2022/11/18 11:06:23;;;;;;;0.00;0.00;;;;;;;8.68;100.00;97543.19;4920772;29;20240;-59
2022/11/18 11:08:52;;;;;;;0.00;0.00;;;;;;;8.85;100.00;97543.16;4915483;29;20309;-60
2022/11/18 11:11:25;;;;;;;0.00;0.00;;;;;;;8.93;100.00;97555.34;4918683;29;20298;-61
2022/11/18 11:13:54;;;;;;;0.03;0.03;;;;;;;8.78;100.00;97556.03;4919148;28;20228;-59
2022/11/18 11:16:21;;;;;;;0.00;0.00;;;;;;;8.77;100.00;97551.81;4916052;28;20240;-59
2022/11/18 11:18:53;;;;;;;0.00;0.00;;;;;;;8.77;100.00;97549.19;4922336;28;20243;-59
2022/11/18 11:21:23;;;;;;;0.10;0.10;;;;;;;8.65;100.00;97537.50;4916152;29;20267;-59
2022/11/18 11:23:51;;;;;;;0.00;0.00;;;;;;;8.60;100.00;97539.78;4908253;29;20242;-60
2022/11/18 11:26:28;;;;;;;0.00;0.00;;;;;;;8.58;100.00;97542.53;4915514;29;20247;-59
2022/11/18 11:29:00;;;;;;;0.00;0.00;;;;;;;8.67;100.00;97543.34;4910849;29;20220;-60
2022/11/18 11:31:35;;;;;;;0.00;0.00;;;;;;;8.82;100.00;97546.91;4915812;29;20251;-59
2022/11/18 11:34:11;;;;;;;0.00;0.00;;;;;;;8.89;100.00;97552.25;4912324;29;20254;-60
2022/11/18 11:36:47;;;;;;;0.00;0.00;;;;;;;9.07;100.00;97557.22;4911685;29;20232;-59
2022/11/18 11:39:47;;;;;;;0.00;0.00;;;;;;;9.14;100.00;97552.97;4908970;29;21007;-60
2022/11/18 11:42:29;;;;;;;0.00;0.00;;;;;;;9.25;100.00;97562.22;4901270;29;20305;-59
2022/11/18 11:45:10;;;;;;;0.00;0.00;;;;;;;9.37;100.00;97560.06;4909922;29;20235;-60
2022/11/18 11:47:49;;;;;;;0.00;0.00;;;;;;;9.29;100.00;97550.50;4919773;29;20247;-60
2022/11/18 11:50:27;;;;;;;0.00;0.00;;;;;;;9.22;100.00;97553.94;4912231;29;20239;-60
2022/11/18 11:53:08;;;;;;;0.00;0.00;;;;;;;9.36;100.00;97575.88;4912950;29;20240;-60
2022/11/18 11:55:45;;;;;;;0.00;0.00;;;;;;;9.37;100.00;97548.84;4920837;29;20240;-57
2022/11/18 11:58:28;;;;;;;0.00;0.00;;;;;;;9.22;100.00;97565.19;4910144;29;20284;-58
2022/11/18 12:01:04;;;;;;;0.00;0.00;;;;;;;9.15;100.00;97564.22;4907480;29;20242;-58